createdAt,value
2019-03-10T00:01:07.523Z,29.87
2019-03-10T00:03:38.688Z,29.03
2019-03-10T00:06:09.650Z,30.40
2019-03-10T00:08:40.776Z,27.67
2019-03-10T00:11:11.759Z,28.73
2019-03-10T00:13:42.852Z,36.10
2019-03-10T00:16:13.902Z,31.10
2019-03-10T00:18:45.259Z,31.50
2019-03-10T00:21:16.647Z,24.30
2019-03-10T00:23:47.824Z,32.17
2019-03-10T00:26:20.878Z,25.10
2019-03-10T00:28:51.877Z,28.60
2019-03-10T00:31:22.993Z,34.20
2019-03-10T00:33:54.029Z,27.43
2019-03-10T00:36:25.052Z,36.33
2019-03-10T00:39:07.852Z,27.23
2019-03-10T00:42:19.888Z,26.27
2019-03-10T00:45:24.590Z,35.90
2019-03-10T00:48:47.376Z,24.87
2019-03-10T00:52:11.831Z,31.70
2019-03-10T00:54:42.940Z,27.07
2019-03-10T00:57:14.251Z,30.87
2019-03-10T00:59:46.266Z,38.93
2019-03-10T01:02:17.713Z,33.27
2019-03-10T01:04:48.979Z,29.37
2019-03-10T01:07:19.899Z,35.93
2019-03-10T01:10:02.809Z,33.83
2019-03-10T01:12:33.921Z,31.70
2019-03-10T01:15:05.711Z,42.73
2019-03-10T01:17:37.285Z,34.73
2019-03-10T01:20:09.695Z,34.50
2019-03-10T01:22:40.783Z,28.07
2019-03-10T01:25:12.039Z,39.83
2019-03-10T01:27:43.481Z,32.47
2019-03-10T01:30:16.865Z,35.90
2019-03-10T01:33:40.876Z,31.50
2019-03-10T01:36:16.310Z,31.73
2019-03-10T01:38:47.413Z,34.97
2019-03-10T01:41:18.795Z,29.57
2019-03-10T01:43:50.249Z,30.87
2019-03-10T01:46:21.622Z,33.70
2019-03-10T01:48:52.654Z,27.37
2019-03-10T01:51:23.765Z,33.40
2019-03-10T01:53:55.911Z,24.30
2019-03-10T01:56:26.962Z,27.13
2019-03-10T01:58:58.071Z,26.27
2019-03-10T02:01:30.092Z,27.90
2019-03-10T02:04:01.230Z,22.93
2019-03-10T02:06:32.351Z,27.77
2019-03-10T02:09:04.053Z,34.90
2019-03-10T02:11:35.852Z,23.80
2019-03-10T02:14:06.880Z,25.20
2019-03-10T02:16:37.879Z,26.70
2019-03-10T02:19:08.895Z,29.57
2019-03-10T02:21:40.384Z,26.70
2019-03-10T02:24:11.792Z,22.60
2019-03-10T02:26:43.149Z,32.93
2019-03-10T02:29:14.558Z,24.33
2019-03-10T02:31:45.613Z,26.00
2019-03-10T02:34:16.697Z,34.03
2019-03-10T02:36:47.687Z,23.63
2019-03-10T02:39:19.132Z,25.50
2019-03-10T02:41:50.180Z,24.13
2019-03-10T02:44:21.206Z,24.63
2019-03-10T02:46:52.295Z,28.00
2019-03-10T02:49:23.375Z,24.70
2019-03-10T02:51:54.846Z,21.47
2019-03-10T02:54:25.818Z,16.10
2019-03-10T02:56:57.289Z,18.10
2019-03-10T02:59:28.736Z,18.83
2019-03-10T03:01:59.872Z,23.17
2019-03-10T03:04:31.305Z,25.30
2019-03-10T03:07:02.413Z,20.27
2019-03-10T03:09:33.809Z,20.00
2019-03-10T03:12:04.865Z,16.87
2019-03-10T03:14:35.895Z,13.57
2019-03-10T03:17:07.334Z,17.03
2019-03-10T03:19:38.341Z,17.07
2019-03-10T03:22:09.417Z,15.30
2019-03-10T03:24:40.402Z,14.93
2019-03-10T03:27:11.413Z,20.50
2019-03-10T03:29:43.233Z,19.20
2019-03-10T03:32:14.358Z,15.17
2019-03-10T03:34:45.456Z,18.67
2019-03-10T03:37:19.464Z,16.90
2019-03-10T03:39:52.432Z,13.23
2019-03-10T03:42:23.448Z,16.20
2019-03-10T03:44:54.796Z,15.30
2019-03-10T03:47:25.812Z,13.53
2019-03-10T03:49:56.912Z,17.70
2019-03-10T03:52:28.061Z,21.30
2019-03-10T03:54:59.704Z,19.40
2019-03-10T03:57:32.752Z,17.40
2019-03-10T04:00:03.941Z,19.13
2019-03-10T04:02:40.375Z,18.60
2019-03-10T04:05:12.404Z,18.37
2019-03-10T04:07:43.856Z,20.67
2019-03-10T04:10:15.178Z,15.17
2019-03-10T04:12:46.566Z,15.50
2019-03-10T04:15:29.599Z,20.97
2019-03-10T04:18:00.974Z,13.97
2019-03-10T04:20:31.909Z,17.83
2019-03-10T04:23:02.989Z,12.03
2019-03-10T04:25:34.379Z,11.40
2019-03-10T04:28:05.418Z,15.37
2019-03-10T04:30:36.735Z,15.70
2019-03-10T04:33:07.839Z,14.03
2019-03-10T04:35:41.056Z,10.90
2019-03-10T04:38:12.088Z,14.00
2019-03-10T04:40:43.098Z,15.00
2019-03-10T04:43:14.410Z,12.30
2019-03-10T04:45:45.434Z,12.30
2019-03-10T04:48:16.455Z,10.40
2019-03-10T04:50:47.806Z,9.63
2019-03-10T04:53:18.860Z,14.50
2019-03-10T04:55:57.986Z,8.57
2019-03-10T04:58:29.008Z,10.03
2019-03-10T05:01:00.096Z,12.00
2019-03-10T05:03:31.051Z,10.93
2019-03-10T05:06:02.481Z,12.70
2019-03-10T05:08:34.035Z,13.70
2019-03-10T05:11:05.477Z,10.30
2019-03-10T05:13:36.465Z,7.57
2019-03-10T05:16:07.546Z,14.63
2019-03-10T05:18:39.645Z,9.30
2019-03-10T05:21:10.720Z,15.13
2019-03-10T05:23:45.540Z,10.33
2019-03-10T05:26:17.045Z,15.43
2019-03-10T05:28:49.100Z,13.37
2019-03-10T05:31:20.213Z,12.27
2019-03-10T05:33:51.175Z,13.90
2019-03-10T05:36:22.645Z,10.57
2019-03-10T05:38:53.742Z,11.07
2019-03-10T05:41:24.816Z,12.67
2019-03-10T05:43:55.873Z,8.77
2019-03-10T05:46:26.902Z,9.97
2019-03-10T05:48:58.209Z,12.47
2019-03-10T05:51:29.602Z,9.53
2019-03-10T05:54:00.645Z,10.80
2019-03-10T05:56:31.667Z,8.57
2019-03-10T05:59:03.083Z,15.93
2019-03-10T06:01:34.135Z,13.37
2019-03-10T06:04:05.165Z,8.60
2019-03-10T06:06:36.127Z,13.13
2019-03-10T06:09:07.586Z,12.23
2019-03-10T06:11:38.591Z,12.30
2019-03-10T06:14:09.641Z,13.17
2019-03-10T06:16:40.675Z,8.70
2019-03-10T06:19:11.992Z,13.73
2019-03-10T06:21:43.107Z,10.20
2019-03-10T06:24:14.135Z,11.77
2019-03-10T06:26:45.134Z,14.93
2019-03-10T06:29:16.113Z,11.97
2019-03-10T06:31:47.531Z,6.53
2019-03-10T06:34:18.562Z,7.13
2019-03-10T06:36:49.970Z,6.97
2019-03-10T06:39:21.042Z,5.57
2019-03-10T06:41:52.442Z,4.87
2019-03-10T06:44:24.271Z,2.57
2019-03-10T06:46:55.581Z,2.93
2019-03-10T06:49:26.887Z,2.20
2019-03-10T06:51:57.941Z,3.60
2019-03-10T06:54:29.014Z,0.97
2019-03-10T06:57:00.101Z,0.90
2019-03-10T06:59:31.073Z,1.30
2019-03-10T07:02:02.530Z,2.07
2019-03-10T07:04:33.843Z,1.83
2019-03-10T07:07:04.876Z,3.23
2019-03-10T07:09:35.946Z,1.57
2019-03-10T07:12:06.985Z,2.77
2019-03-10T07:14:38.099Z,3.57
2019-03-10T07:17:09.488Z,2.50
2019-03-10T07:19:40.880Z,4.27
2019-03-10T07:22:12.244Z,4.07
2019-03-10T07:24:43.590Z,4.33
2019-03-10T07:27:14.666Z,4.27
2019-03-10T07:30:04.645Z,3.93
2019-03-10T07:32:47.784Z,2.43
2019-03-10T07:35:56.106Z,4.63
2019-03-10T07:38:44.235Z,3.60
2019-03-10T07:41:34.634Z,4.50
2019-03-10T07:44:11.312Z,4.27
2019-03-10T07:47:04.724Z,4.33
2019-03-10T07:49:54.720Z,4.97
2019-03-10T07:52:45.134Z,9.63
2019-03-10T07:55:33.970Z,4.93
2019-03-10T07:58:12.239Z,6.20
2019-03-10T08:01:05.274Z,4.93
2019-03-10T08:03:58.210Z,6.40
2019-03-10T08:06:54.508Z,13.43
2019-03-10T08:09:50.577Z,5.03
2019-03-10T08:12:50.264Z,6.10
2019-03-10T08:15:49.520Z,6.13
2019-03-10T08:18:41.561Z,7.80
2019-03-10T08:21:34.311Z,5.93
2019-03-10T08:24:14.954Z,5.07
2019-03-10T08:26:56.314Z,4.80
2019-03-10T08:29:45.361Z,5.13
2019-03-10T08:32:33.997Z,5.93
2019-03-10T08:35:17.022Z,3.33
2019-03-10T08:38:06.385Z,5.40
2019-03-10T08:40:56.844Z,3.93
2019-03-10T08:43:46.839Z,12.43
2019-03-10T08:46:25.819Z,13.37
2019-03-10T08:49:21.746Z,10.20
2019-03-10T08:52:30.152Z,13.63
2019-03-10T08:55:20.150Z,14.07
2019-03-10T08:58:21.969Z,10.60
2019-03-10T09:01:22.081Z,13.17
2019-03-10T09:04:15.482Z,13.93
2019-03-10T09:07:11.315Z,14.00
2019-03-10T09:09:54.527Z,13.43
2019-03-10T09:12:47.305Z,20.37
2019-03-10T09:15:34.820Z,13.60
2019-03-10T09:18:22.446Z,12.07
2019-03-10T09:21:31.076Z,18.43
2019-03-10T09:24:18.295Z,14.67
2019-03-10T09:27:02.708Z,13.80
2019-03-10T09:29:51.582Z,22.53
2019-03-10T09:32:48.964Z,16.80
2019-03-10T09:35:29.120Z,20.53
2019-03-10T09:38:12.416Z,16.03
2019-03-10T09:41:15.174Z,19.03
2019-03-10T09:44:04.051Z,17.70
2019-03-10T09:46:54.723Z,19.20
2019-03-10T09:49:33.600Z,22.00
2019-03-10T09:52:11.765Z,16.40
2019-03-10T09:55:04.853Z,14.83
2019-03-10T09:57:58.303Z,15.47
2019-03-10T10:01:07.018Z,17.33
2019-03-10T10:04:03.161Z,17.30
2019-03-10T10:06:52.594Z,24.13
2019-03-10T10:09:42.691Z,20.33
2019-03-10T10:12:30.506Z,19.63
2019-03-10T10:15:20.579Z,20.87
2019-03-10T10:18:10.914Z,15.87
2019-03-10T10:20:58.441Z,19.55
2019-03-10T10:23:47.431Z,15.40
2019-03-10T10:26:29.410Z,18.10
2019-03-10T10:29:20.432Z,16.03
2019-03-10T10:32:09.260Z,22.13
2019-03-10T10:35:05.568Z,15.93
2019-03-10T10:37:47.837Z,18.43
2019-03-10T10:40:36.502Z,24.33
2019-03-10T10:43:38.657Z,20.63
2019-03-10T10:46:36.520Z,21.17
2019-03-10T10:49:32.873Z,20.43
2019-03-10T10:52:12.693Z,23.00
2019-03-10T10:54:55.794Z,24.33
2019-03-10T10:57:34.549Z,19.20
2019-03-10T11:00:15.011Z,23.13
2019-03-10T11:02:58.435Z,13.37
2019-03-10T11:05:52.414Z,21.27
2019-03-10T11:08:49.257Z,26.33
2019-03-10T11:11:48.867Z,28.20
2019-03-10T11:14:38.244Z,24.60
2019-03-10T11:17:28.339Z,28.43
2019-03-10T11:20:18.792Z,22.57
2019-03-10T11:22:55.797Z,24.33
2019-03-10T11:25:54.831Z,26.63
2019-03-10T11:28:43.461Z,23.87
2019-03-10T11:31:31.234Z,24.83
2019-03-10T11:34:24.629Z,22.57
2019-03-10T11:37:14.693Z,21.70
2019-03-10T11:39:55.461Z,21.17
2019-03-10T11:42:36.784Z,18.60
2019-03-10T11:45:36.632Z,20.80
2019-03-10T11:48:26.045Z,16.60
2019-03-10T11:51:06.218Z,18.80
2019-03-10T11:54:16.563Z,12.90
2019-03-10T11:57:12.537Z,15.87
2019-03-10T12:00:21.047Z,13.67
2019-03-10T12:03:09.540Z,12.27
2019-03-10T12:05:58.388Z,9.27
2019-03-10T12:08:37.464Z,8.73
2019-03-10T12:11:08.780Z,6.90
2019-03-10T12:13:39.710Z,4.67
2019-03-10T12:16:11.258Z,5.80
2019-03-10T12:18:42.538Z,7.03
2019-03-10T12:21:13.532Z,5.30
2019-03-10T12:23:44.584Z,3.77
2019-03-10T12:26:15.885Z,3.07
2019-03-10T12:28:48.054Z,4.03
2019-03-10T12:31:19.470Z,2.90
2019-03-10T12:33:50.841Z,2.63
2019-03-10T12:36:21.891Z,2.10
2019-03-10T12:38:52.958Z,5.17
2019-03-10T12:41:24.010Z,2.43
2019-03-10T12:43:54.981Z,5.55
2019-03-10T12:46:26.778Z,3.10
2019-03-10T12:48:57.898Z,5.67
2019-03-10T12:51:29.229Z,7.23
2019-03-10T12:54:00.610Z,2.87
2019-03-10T12:56:31.752Z,2.27
2019-03-10T12:59:02.866Z,4.17
2019-03-10T13:01:33.918Z,2.47
2019-03-10T13:04:05.489Z,1.90
2019-03-10T13:06:36.887Z,5.17
2019-03-10T13:09:09.728Z,2.30
2019-03-10T13:11:40.849Z,2.63
2019-03-10T13:14:11.890Z,6.30
2019-03-10T13:16:42.963Z,6.27
2019-03-10T13:19:13.942Z,3.20
2019-03-10T13:21:45.397Z,3.90
2019-03-10T13:24:16.623Z,2.77
2019-03-10T13:26:47.659Z,6.70
2019-03-10T13:29:18.711Z,2.93
2019-03-10T13:31:50.111Z,5.37
2019-03-10T13:34:21.571Z,3.70
2019-03-10T13:36:52.929Z,6.03
2019-03-10T13:39:24.267Z,2.40
2019-03-10T13:41:55.389Z,2.50
2019-03-10T13:44:26.426Z,2.53
2019-03-10T13:46:57.756Z,2.07
2019-03-10T13:49:28.777Z,3.83
2019-03-10T13:52:00.239Z,3.07
2019-03-10T13:54:32.810Z,7.60
2019-03-10T13:57:03.953Z,3.43
2019-03-10T13:59:34.996Z,2.57
2019-03-10T14:02:06.318Z,5.13
2019-03-10T14:04:37.424Z,2.83
2019-03-10T14:07:08.787Z,1.97
2019-03-10T14:09:39.856Z,2.63
2019-03-10T14:12:11.003Z,1.77
2019-03-10T14:14:42.026Z,3.43
2019-03-10T14:17:13.526Z,2.77
2019-03-10T14:19:44.907Z,4.80
2019-03-10T14:22:16.151Z,5.10
2019-03-10T14:24:47.492Z,2.73
2019-03-10T14:27:18.630Z,2.47
2019-03-10T14:29:50.189Z,4.70
2019-03-10T14:32:21.283Z,1.90
2019-03-10T14:34:52.331Z,3.27
2019-03-10T14:37:23.348Z,6.43
2019-03-10T14:39:54.280Z,3.03
2019-03-10T14:42:25.626Z,4.10
2019-03-10T14:44:56.625Z,2.90
2019-03-10T14:47:27.642Z,6.47
2019-03-10T14:49:59.116Z,4.77
2019-03-10T14:52:31.006Z,6.90
2019-03-10T14:55:01.958Z,4.43
2019-03-10T14:57:33.000Z,6.77
2019-03-10T15:00:05.411Z,4.50
2019-03-10T15:02:36.914Z,2.60
2019-03-10T15:05:08.344Z,3.67
2019-03-10T15:07:39.771Z,3.80
2019-03-10T15:10:12.640Z,1.40
2019-03-10T15:12:43.703Z,1.20
2019-03-10T15:15:22.472Z,2.67
2019-03-10T15:17:48.084Z,2.27
2019-03-10T15:20:21.466Z,0.77
2019-03-10T15:22:53.593Z,2.20
2019-03-10T15:25:25.436Z,1.70
2019-03-10T15:27:56.528Z,1.92
2019-03-10T15:30:27.980Z,1.83
2019-03-10T15:32:58.951Z,2.40
2019-03-10T15:35:31.262Z,2.30
2019-03-10T15:38:02.782Z,5.08
2019-03-10T15:40:34.054Z,2.53
2019-03-10T15:43:05.165Z,2.07
2019-03-10T15:45:36.211Z,5.53
2019-03-10T15:48:07.245Z,5.53
2019-03-10T15:50:38.708Z,2.60
2019-03-10T15:53:09.762Z,2.17
2019-03-10T15:55:40.795Z,7.80
2019-03-10T15:58:11.843Z,3.17
2019-03-10T16:00:42.980Z,5.23
2019-03-10T16:03:15.042Z,4.03
2019-03-10T16:05:46.349Z,4.60
2019-03-10T16:08:17.421Z,3.80
2019-03-10T16:10:48.801Z,5.70
2019-03-10T16:13:19.824Z,5.00
2019-03-10T16:15:50.773Z,3.93
2019-03-10T16:18:21.871Z,3.40
2019-03-10T16:20:52.887Z,4.47
2019-03-10T16:23:24.189Z,4.70
2019-03-10T16:25:55.234Z,4.97
2019-03-10T16:28:26.238Z,4.47
2019-03-10T16:30:57.198Z,2.07
2019-03-10T16:33:28.243Z,5.57
2019-03-10T16:35:59.485Z,2.23
2019-03-10T16:38:30.534Z,4.30
2019-03-10T16:41:01.659Z,4.10
2019-03-10T16:43:32.758Z,2.03
2019-03-10T16:46:04.145Z,4.67
2019-03-10T16:48:35.551Z,3.63
2019-03-10T16:51:06.956Z,4.97
2019-03-10T16:53:37.957Z,6.60
2019-03-10T16:56:08.931Z,3.37
2019-03-10T16:58:40.279Z,5.87
2019-03-10T17:01:12.026Z,4.13
2019-03-10T17:03:44.141Z,3.23
2019-03-10T17:06:15.738Z,2.80
2019-03-10T17:08:49.039Z,4.27
2019-03-10T17:11:21.853Z,3.47
2019-03-10T17:13:53.055Z,2.77
2019-03-10T17:16:24.518Z,3.73
2019-03-10T17:18:55.858Z,3.77
2019-03-10T17:21:26.995Z,3.00
2019-03-10T17:23:58.738Z,2.23
2019-03-10T17:26:29.741Z,3.60
2019-03-10T17:29:00.757Z,3.43
2019-03-10T17:31:32.197Z,2.70
2019-03-10T17:34:03.272Z,3.77
2019-03-10T17:36:34.258Z,4.20
2019-03-10T17:39:07.011Z,3.17
2019-03-10T17:41:38.177Z,2.93
2019-03-10T17:44:09.880Z,3.37
2019-03-10T17:46:42.158Z,3.02
2019-03-10T17:49:13.176Z,5.13
2019-03-10T17:51:44.607Z,2.83
2019-03-10T17:54:16.195Z,3.67
2019-03-10T17:56:47.178Z,2.97
2019-03-10T17:59:18.203Z,2.30
2019-03-10T18:01:49.206Z,3.93
2019-03-10T18:04:20.121Z,3.17
2019-03-10T18:06:51.833Z,2.10
2019-03-10T18:09:23.934Z,3.47
2019-03-10T18:11:55.215Z,1.97
2019-03-10T18:14:26.626Z,2.17
2019-03-10T18:16:57.894Z,3.00
2019-03-10T18:19:29.000Z,1.27
2019-03-10T18:22:00.468Z,1.40
2019-03-10T18:24:32.306Z,1.20
2019-03-10T18:27:03.707Z,4.20
2019-03-10T18:29:34.872Z,1.67
2019-03-10T18:32:05.896Z,1.17
2019-03-10T18:34:37.003Z,3.77
2019-03-10T18:37:07.917Z,2.50
2019-03-10T18:39:39.361Z,1.77
2019-03-10T18:42:10.329Z,5.27
2019-03-10T18:44:41.287Z,1.53
2019-03-10T18:47:12.914Z,5.10
2019-03-10T18:49:44.385Z,3.97
2019-03-10T18:52:15.396Z,4.33
2019-03-10T18:54:46.369Z,4.50
2019-03-10T18:57:17.443Z,4.47
2019-03-10T18:59:48.462Z,3.23
2019-03-10T19:02:20.481Z,3.13
2019-03-10T19:04:51.735Z,3.73
2019-03-10T19:07:23.181Z,4.90
2019-03-10T19:09:54.235Z,3.77
2019-03-10T19:12:25.310Z,6.37
2019-03-10T19:14:56.632Z,3.73
2019-03-10T19:17:27.639Z,6.03
2019-03-10T19:19:58.794Z,6.17
2019-03-10T19:22:29.880Z,10.87
2019-03-10T19:25:00.982Z,8.43
2019-03-10T19:27:33.894Z,8.83
2019-03-10T19:30:06.068Z,3.33
2019-03-10T19:32:37.309Z,6.93
2019-03-10T19:35:08.309Z,8.07
2019-03-10T19:37:39.462Z,5.30
2019-03-10T19:40:12.682Z,6.60
2019-03-10T19:42:44.184Z,7.10
2019-03-10T19:45:16.231Z,7.23
2019-03-10T19:47:47.279Z,5.50
2019-03-10T19:50:18.423Z,6.40
2019-03-10T19:52:49.887Z,8.23
2019-03-10T19:55:20.958Z,4.93
2019-03-10T19:57:52.027Z,8.23
2019-03-10T20:00:23.242Z,4.60
2019-03-10T20:02:54.670Z,6.20
2019-03-10T20:05:26.206Z,6.23
2019-03-10T20:07:57.233Z,5.40
2019-03-10T20:10:28.449Z,4.60
2019-03-10T20:12:59.500Z,3.97
2019-03-10T20:15:30.883Z,6.07
2019-03-10T20:18:01.978Z,5.43
2019-03-10T20:20:33.885Z,6.87
2019-03-10T20:23:04.961Z,5.63
2019-03-10T20:25:36.063Z,6.53
2019-03-10T20:28:09.178Z,8.40
2019-03-10T20:33:21.589Z,8.67
2019-03-10T20:35:53.104Z,7.93
2019-03-10T20:38:24.407Z,9.57
2019-03-10T20:40:56.952Z,8.77
2019-03-10T20:43:27.964Z,11.23
2019-03-10T20:45:58.983Z,5.37
2019-03-10T20:48:30.055Z,6.03
2019-03-10T20:51:01.028Z,11.20
2019-03-10T20:53:32.182Z,9.93
2019-03-10T20:56:03.312Z,9.43
2019-03-10T20:58:35.211Z,9.90
2019-03-10T21:01:06.277Z,11.53
2019-03-10T21:03:37.371Z,8.63
2019-03-10T21:06:08.482Z,8.90
2019-03-10T21:08:39.931Z,12.87
2019-03-10T21:11:12.486Z,10.10
2019-03-10T21:13:44.227Z,8.27
2019-03-10T21:16:15.611Z,12.67
2019-03-10T21:18:46.747Z,8.90
2019-03-10T21:21:17.785Z,10.07
2019-03-10T21:23:48.833Z,12.13
2019-03-10T21:26:19.800Z,8.90
2019-03-10T21:28:50.772Z,9.20
2019-03-10T21:31:22.104Z,6.87
2019-03-10T21:33:53.595Z,8.60
2019-03-10T21:36:24.713Z,6.83
2019-03-10T21:38:55.838Z,12.13
2019-03-10T21:41:26.808Z,10.10
2019-03-10T21:43:58.404Z,8.83
2019-03-10T21:46:29.687Z,12.40
2019-03-10T21:49:12.434Z,5.47
2019-03-10T21:51:43.432Z,8.27
2019-03-10T21:54:14.430Z,14.90
2019-03-10T21:56:46.230Z,10.77
2019-03-10T21:59:17.201Z,14.90
2019-03-10T22:01:48.475Z,7.83
2019-03-10T22:04:19.592Z,9.00
2019-03-10T22:06:52.027Z,13.37
2019-03-10T22:09:23.082Z,9.40
2019-03-10T22:11:54.110Z,8.13
2019-03-10T22:14:25.105Z,6.87
2019-03-10T22:16:56.532Z,11.97
2019-03-10T22:19:27.602Z,10.23
2019-03-10T22:21:58.618Z,12.13
2019-03-10T22:24:30.677Z,7.00
2019-03-10T22:27:01.732Z,8.47
2019-03-10T22:29:32.977Z,8.97
2019-03-10T22:32:04.077Z,7.80
2019-03-10T22:34:35.125Z,12.73
2019-03-10T22:37:06.171Z,9.70
2019-03-10T22:39:37.254Z,12.13
2019-03-10T22:42:08.972Z,13.47
2019-03-10T22:44:42.855Z,8.17
2019-03-10T22:47:14.226Z,9.97
2019-03-10T22:49:45.294Z,13.70
2019-03-10T22:52:16.428Z,8.13
2019-03-10T22:54:47.447Z,6.30
2019-03-10T22:57:18.417Z,9.00
2019-03-10T22:59:49.463Z,8.77
2019-03-10T23:02:20.471Z,11.67
2019-03-10T23:04:51.477Z,8.17
2019-03-10T23:07:22.563Z,6.53
2019-03-10T23:09:54.036Z,12.20
2019-03-10T23:12:26.105Z,6.53
2019-03-10T23:14:57.111Z,9.50
2019-03-10T23:17:28.054Z,10.33
2019-03-10T23:20:00.755Z,5.40
2019-03-10T23:22:31.822Z,13.27
2019-03-10T23:25:03.927Z,17.70
2019-03-10T23:27:34.986Z,9.17
2019-03-10T23:30:07.519Z,12.53
2019-03-10T23:32:38.447Z,11.37
2019-03-10T23:35:09.887Z,7.83
2019-03-10T23:37:40.943Z,10.70
2019-03-10T23:40:12.147Z,9.90
2019-03-10T23:42:43.127Z,6.67
2019-03-10T23:45:14.701Z,8.50
2019-03-10T23:47:45.725Z,6.07
2019-03-10T23:50:17.505Z,4.57
2019-03-10T23:52:48.599Z,6.37
2019-03-10T23:55:19.657Z,7.83
2019-03-10T23:57:50.683Z,7.93
